Norwood, North Carolina
Current Conditions -  °F | °C
As of 4:55 AM on Sunday 23 Nov 2014 (Local Time) from KVUJ Reporting Station
Overcast Overcast  
Wind Chill: 43°   Ceiling: 2700
Heat Index: 43°   Visibility: 10mi
Dew Point: 33°   Wind: 0mph
Humidity: 68%   Direction: NA
Pressure: 30.29"   Gusts: NA
Location:  35.22°N, 80.12°W
Report Text: KVUJ 230955Z AUTO 00000KT 10SM BKN027 BKN038 OVC050 06/01 A3029 RMK AO2 T00610006
Loading
Personal Weather Stations






























Interactive Weather Map New forecast layout! Learn more

10-Day Weather Forecast

Advertisements
Track Severe Weather on mobile